Time;durP1;ratioP1;P1;durP2;ratioP2;P2;SDS_P1;SDS_P2;PMS_P1;PMS_P2;Temp;Humidity;BMP_temperature;BMP_pressure;BME280_temperature;BME280_humidity;BME280_pressure;Samples;Min_cycle;Max_cycle;Signal;HPM_P1;HPM_P2
2022/04/12 00:00:18;;;;;;;1.50;1.13;;;11.30;77.20;;;;;;4969440;28;20556;-80
2022/04/12 00:02:45;;;;;;;1.43;1.10;;;11.40;77.10;;;;;;4965697;28;20465;-80
2022/04/12 00:05:12;;;;;;;1.47;1.10;;;11.40;76.90;;;;;;4971966;28;20466;-80
2022/04/12 00:07:39;;;;;;;1.50;1.10;;;11.40;77.00;;;;;;4971443;28;20472;-79
2022/04/12 00:10:07;;;;;;;1.50;1.13;;;11.40;77.20;;;;;;4969437;28;20494;-80
2022/04/12 00:12:37;;;;;;;1.50;1.00;;;11.40;77.00;;;;;;4965119;28;20457;-80
2022/04/12 00:15:05;;;;;;;1.50;1.10;;;11.50;76.90;;;;;;4968805;28;20490;-80
2022/04/12 00:20:16;;;;;;;1.50;1.10;;;11.50;76.70;;;;;;4967498;28;20524;-80
2022/04/12 00:22:44;;;;;;;1.50;1.10;;;11.50;76.80;;;;;;4973642;28;20470;-80
2022/04/12 00:25:11;;;;;;;1.50;1.20;;;11.50;76.90;;;;;;4972331;28;20477;-80
2022/04/12 00:27:41;;;;;;;1.50;1.33;;;11.50;77.00;;;;;;4974610;28;20872;-80
2022/04/12 00:30:11;;;;;;;1.50;1.10;;;11.50;77.00;;;;;;4974441;28;20481;-81
2022/04/12 00:32:39;;;;;;;1.53;1.43;;;11.50;77.10;;;;;;4969157;28;20462;-80
2022/04/12 00:35:06;;;;;;;1.60;1.30;;;11.50;77.10;;;;;;4965976;28;21020;-80
2022/04/12 00:37:33;;;;;;;1.47;1.10;;;11.50;77.10;;;;;;4964407;28;20461;-80
2022/04/12 00:40:00;;;;;;;2.27;2.07;;;11.40;77.20;;;;;;4970852;28;20469;-80
2022/04/12 00:42:26;;;;;;;1.43;1.10;;;11.40;77.20;;;;;;4967570;28;20877;-79
2022/04/12 00:44:54;;;;;;;1.50;1.10;;;11.40;77.30;;;;;;4974608;28;20466;-80
2022/04/12 00:47:21;;;;;;;1.50;1.10;;;11.40;77.30;;;;;;4968331;28;20465;-80
2022/04/12 00:49:48;;;;;;;1.80;1.47;;;11.40;77.20;;;;;;4974415;28;20469;-79
2022/04/12 00:52:15;;;;;;;1.40;1.00;;;11.40;77.30;;;;;;4967165;28;20820;-80
2022/04/12 00:54:43;;;;;;;1.43;1.10;;;11.40;77.30;;;;;;4975038;28;20497;-79
2022/04/12 00:57:12;;;;;;;1.60;1.40;;;11.40;77.20;;;;;;4967232;28;20473;-80
2022/04/12 00:59:39;;;;;;;1.40;1.10;;;11.40;77.30;;;;;;4971710;28;20552;-80
2022/04/12 01:02:08;;;;;;;1.47;1.00;;;11.40;77.30;;;;;;4972846;28;20652;-80
2022/04/12 01:04:34;;;;;;;1.47;1.10;;;11.40;77.50;;;;;;4961167;28;20466;-79
2022/04/12 01:07:01;;;;;;;1.50;1.20;;;11.40;77.60;;;;;;4964758;28;20466;-79
2022/04/12 01:09:28;;;;;;;1.60;1.50;;;11.40;77.60;;;;;;4965566;28;20467;-80
2022/04/12 01:11:57;;;;;;;1.47;1.10;;;11.40;77.60;;;;;;4958442;28;20906;-79
2022/04/12 01:14:25;;;;;;;1.50;1.30;;;11.40;77.60;;;;;;4962007;28;20486;-80
2022/04/12 01:16:52;;;;;;;1.43;1.07;;;11.50;77.20;;;;;;4966897;28;20469;-80
2022/04/12 01:19:21;;;;;;;1.83;1.63;;;11.50;77.10;;;;;;4973299;28;20468;-80
2022/04/12 01:21:53;;;;;;;1.43;1.10;;;11.50;77.00;;;;;;4968154;28;20493;-80
2022/04/12 01:24:22;;;;;;;1.50;1.10;;;11.50;77.10;;;;;;4973454;28;20462;-80
2022/04/12 01:26:49;;;;;;;1.47;1.10;;;11.50;77.20;;;;;;4969508;28;20841;-80
2022/04/12 01:29:15;;;;;;;1.50;1.10;;;11.40;77.40;;;;;;4968732;28;20477;-80
2022/04/12 01:31:42;;;;;;;1.50;1.00;;;11.40;77.40;;;;;;4968307;28;21102;-79
2022/04/12 01:34:09;;;;;;;1.50;1.20;;;11.40;77.50;;;;;;4966683;28;20500;-80
2022/04/12 01:36:36;;;;;;;1.50;1.00;;;11.40;77.30;;;;;;4969402;28;20471;-79
2022/04/12 01:39:03;;;;;;;1.47;1.10;;;11.50;77.20;;;;;;4971932;28;20469;-80
2022/04/12 01:43:59;;;;;;;1.40;1.00;;;11.40;77.40;;;;;;4929229;29;20539;-77
2022/04/12 01:46:25;;;;;;;1.50;1.10;;;11.40;77.50;;;;;;4931869;29;20475;-76
2022/04/12 01:48:52;;;;;;;1.50;1.10;;;11.40;77.70;;;;;;4932600;29;20463;-75
2022/04/12 01:51:19;;;;;;;1.47;1.10;;;11.40;77.80;;;;;;4930408;29;20833;-76
2022/04/12 01:53:46;;;;;;;1.50;1.00;;;11.40;78.00;;;;;;4929193;29;20654;-76
2022/04/12 01:56:13;;;;;;;1.43;1.10;;;11.30;78.20;;;;;;4925503;29;20476;-77
2022/04/12 01:58:42;;;;;;;1.47;1.10;;;11.30;78.20;;;;;;4932096;29;20827;-76
2022/04/12 02:01:10;;;;;;;1.50;1.20;;;11.30;78.50;;;;;;4927420;29;20471;-77
2022/04/12 02:03:36;;;;;;;1.43;1.07;;;11.30;78.60;;;;;;4932329;29;20538;-76
2022/04/12 02:06:04;;;;;;;1.50;1.20;;;11.20;78.80;;;;;;4928165;29;20991;-76
2022/04/12 02:08:30;;;;;;;1.40;1.00;;;11.20;78.90;;;;;;4929096;29;20492;-76
2022/04/12 02:10:57;;;;;;;1.50;1.10;;;11.20;79.00;;;;;;4926899;29;20467;-77
2022/04/12 02:13:24;;;;;;;1.50;1.10;;;11.20;78.70;;;;;;4931944;29;20937;-76
2022/04/12 02:15:50;;;;;;;1.47;1.10;;;11.20;78.80;;;;;;4931371;29;20844;-76
2022/04/12 02:18:19;;;;;;;1.50;1.10;;;11.20;79.00;;;;;;4928122;29;20564;-76
2022/04/12 02:20:46;;;;;;;1.47;1.10;;;11.20;79.10;;;;;;4928460;29;20849;-76
2022/04/12 02:23:13;;;;;;;1.47;1.10;;;11.20;79.00;;;;;;4927908;29;20510;-76
2022/04/12 02:25:39;;;;;;;1.43;1.10;;;11.20;79.10;;;;;;4931064;29;20460;-76
2022/04/12 02:28:06;;;;;;;1.50;1.10;;;11.20;79.10;;;;;;4929971;29;20464;-76
2022/04/12 02:30:33;;;;;;;1.40;1.10;;;11.20;79.00;;;;;;4929049;29;20468;-76
2022/04/12 02:33:00;;;;;;;1.50;1.20;;;11.20;79.00;;;;;;4925340;29;20510;-76
2022/04/12 02:35:28;;;;;;;1.50;1.20;;;11.20;79.10;;;;;;4931831;29;20499;-76
2022/04/12 02:37:55;;;;;;;1.50;1.10;;;11.20;79.10;;;;;;4926943;29;20480;-76
2022/04/12 02:40:22;;;;;;;1.43;1.00;;;11.20;79.10;;;;;;4924965;29;20847;-76
2022/04/12 02:42:49;;;;;;;1.50;1.20;;;11.20;79.00;;;;;;4921795;29;21039;-76
2022/04/12 02:45:16;;;;;;;1.50;1.10;;;11.20;79.10;;;;;;4930877;29;20482;-76
2022/04/12 02:47:42;;;;;;;1.40;1.00;;;11.20;79.10;;;;;;4923134;29;20476;-76
2022/04/12 02:50:10;;;;;;;1.47;1.00;;;11.30;78.90;;;;;;4926888;29;20503;-74
2022/04/12 02:52:38;;;;;;;1.40;1.00;;;11.20;79.00;;;;;;4924602;29;20865;-76
2022/04/12 02:55:06;;;;;;;1.43;1.10;;;11.30;78.70;;;;;;4926690;29;20484;-76
2022/04/12 02:57:33;;;;;;;3.70;3.50;;;11.30;78.90;;;;;;4920722;29;20471;-76
2022/04/12 02:59:59;;;;;;;1.50;1.10;;;11.30;78.80;;;;;;4927345;29;20555;-75
2022/04/12 03:02:26;;;;;;;4.07;3.77;;;11.30;78.80;;;;;;4929438;29;21039;-76
2022/04/12 03:04:53;;;;;;;1.47;1.10;;;11.30;78.90;;;;;;4929729;29;20461;-77
2022/04/12 03:07:20;;;;;;;2.90;2.60;;;11.30;78.80;;;;;;4926014;29;20468;-77
2022/04/12 03:09:49;;;;;;;1.43;1.10;;;11.30;79.00;;;;;;4929780;29;20464;-76
2022/04/12 03:12:16;;;;;;;1.40;1.10;;;11.30;78.90;;;;;;4920328;29;20487;-76
2022/04/12 03:14:43;;;;;;;1.40;1.00;;;11.40;78.90;;;;;;4928335;29;20488;-77
2022/04/12 03:17:09;;;;;;;2.53;2.33;;;11.40;78.80;;;;;;4924213;29;20484;-76
2022/04/12 03:19:36;;;;;;;1.47;1.07;;;11.40;78.70;;;;;;4930152;29;20478;-74
2022/04/12 03:22:03;;;;;;;1.43;1.07;;;11.40;78.70;;;;;;4928469;29;20484;-77
2022/04/12 03:24:31;;;;;;;1.40;1.00;;;11.40;78.80;;;;;;4929279;29;20471;-76
2022/04/12 03:26:59;;;;;;;1.43;1.10;;;11.40;78.80;;;;;;4924351;29;20499;-75
2022/04/12 03:29:27;;;;;;;1.40;1.00;;;11.30;78.60;;;;;;4927487;29;20472;-77
2022/04/12 03:31:54;;;;;;;1.43;1.10;;;11.30;78.80;;;;;;4917444;29;20496;-75
2022/04/12 03:34:21;;;;;;;1.47;1.10;;;11.30;78.80;;;;;;4918111;29;20468;-76
2022/04/12 03:36:48;;;;;;;1.40;1.07;;;11.30;78.90;;;;;;4927236;29;20469;-78
2022/04/12 03:39:17;;;;;;;1.50;1.00;;;11.30;78.90;;;;;;4923484;29;20491;-74
2022/04/12 03:41:45;;;;;;;1.47;1.10;;;11.30;79.00;;;;;;4918983;29;20881;-76
2022/04/12 03:44:13;;;;;;;1.47;1.10;;;11.30;79.10;;;;;;4922997;29;20470;-76
2022/04/12 03:46:40;;;;;;;1.40;1.10;;;11.30;79.30;;;;;;4926333;29;20522;-76
2022/04/12 03:49:07;;;;;;;1.43;1.00;;;11.20;79.20;;;;;;4929607;29;20471;-77
2022/04/12 03:51:36;;;;;;;1.40;1.03;;;11.20;79.40;;;;;;4925378;29;20910;-76
2022/04/12 03:54:03;;;;;;;1.50;1.10;;;11.20;79.70;;;;;;4923281;29;20496;-75
2022/04/12 03:56:30;;;;;;;1.50;1.13;;;11.20;79.70;;;;;;4925126;29;20844;-76
2022/04/12 03:58:58;;;;;;;1.40;1.10;;;11.20;79.90;;;;;;4925774;29;20570;-76
2022/04/12 04:01:29;;;;;;;1.47;1.07;;;11.20;79.90;;;;;;4925532;29;20859;-76
2022/04/12 04:03:55;;;;;;;1.40;1.00;;;11.20;79.90;;;;;;4926959;29;20476;-76
2022/04/12 04:06:22;;;;;;;1.50;1.10;;;11.10;80.00;;;;;;4927527;29;20460;-76
2022/04/12 04:08:49;;;;;;;1.50;1.10;;;11.10;80.20;;;;;;4925901;29;20544;-76
2022/04/12 04:11:15;;;;;;;1.43;1.10;;;11.00;80.30;;;;;;4921810;29;20467;-76
2022/04/12 04:13:42;;;;;;;1.47;1.10;;;11.00;80.30;;;;;;4924494;29;20490;-77
2022/04/12 04:16:09;;;;;;;1.43;1.07;;;11.00;80.40;;;;;;4923239;29;20775;-77
2022/04/12 04:18:37;;;;;;;1.47;1.10;;;11.00;80.60;;;;;;4920554;29;20464;-76
2022/04/12 04:21:04;;;;;;;1.47;1.10;;;11.00;80.60;;;;;;4930073;29;20477;-76
2022/04/12 04:23:31;;;;;;;1.50;1.00;;;10.90;80.80;;;;;;4932353;29;20551;-76
2022/04/12 04:25:58;;;;;;;3.10;2.80;;;10.90;80.80;;;;;;4923711;29;20460;-76
2022/04/12 04:28:29;;;;;;;1.47;1.10;;;10.90;81.00;;;;;;4922993;29;20477;-76
2022/04/12 04:30:57;;;;;;;1.47;1.10;;;10.90;81.10;;;;;;4921405;29;20583;-77
2022/04/12 04:33:28;;;;;;;1.50;1.10;;;10.90;81.10;;;;;;4928499;29;20803;-76
2022/04/12 04:35:57;;;;;;;1.43;1.10;;;10.90;81.20;;;;;;4929310;29;20495;-76
2022/04/12 04:38:24;;;;;;;1.43;1.07;;;10.90;81.30;;;;;;4935458;29;20491;-76
2022/04/12 04:40:50;;;;;;;2.87;2.60;;;10.90;81.30;;;;;;4927431;29;20471;-76
2022/04/12 04:43:17;;;;;;;1.50;1.10;;;10.90;81.40;;;;;;4926245;29;20572;-76
2022/04/12 04:45:44;;;;;;;1.50;1.10;;;10.90;81.50;;;;;;4934118;29;21024;-76
2022/04/12 04:48:12;;;;;;;1.43;1.00;;;10.90;81.70;;;;;;4930738;29;20546;-76
2022/04/12 04:50:42;;;;;;;1.50;1.10;;;10.80;82.00;;;;;;4932447;29;20482;-76
2022/04/12 04:53:11;;;;;;;1.47;1.10;;;10.90;82.00;;;;;;4935679;29;20483;-77
2022/04/12 04:55:42;;;;;;;1.43;1.10;;;10.90;82.20;;;;;;4937991;29;21038;-76
2022/04/12 04:58:09;;;;;;;1.50;1.13;;;10.90;82.30;;;;;;4929485;29;20561;-75
2022/04/12 05:00:36;;;;;;;1.50;1.10;;;10.90;82.40;;;;;;4929047;29;20464;-76
2022/04/12 05:03:05;;;;;;;1.43;1.10;;;10.90;82.40;;;;;;4937382;29;20487;-73
2022/04/12 05:05:32;;;;;;;1.40;1.00;;;10.90;82.50;;;;;;4937593;29;21180;-77
2022/04/12 05:08:00;;;;;;;1.50;1.20;;;11.00;82.60;;;;;;4942014;28;20492;-75
2022/04/12 05:10:29;;;;;;;1.40;1.10;;;11.00;82.30;;;;;;4933167;29;20467;-76
2022/04/12 05:12:57;;;;;;;1.43;1.00;;;11.00;82.40;;;;;;4937238;29;20497;-76
2022/04/12 05:15:24;;;;;;;1.53;1.30;;;11.00;82.30;;;;;;4935143;29;20487;-75
2022/04/12 05:17:52;;;;;;;1.43;1.10;;;11.00;82.30;;;;;;4928039;29;20460;-75
2022/04/12 05:20:20;;;;;;;1.50;1.10;;;11.00;82.10;;;;;;4938512;29;20463;-76
2022/04/12 05:22:47;;;;;;;1.50;1.10;;;11.00;82.00;;;;;;4933951;29;20558;-76
2022/04/12 05:25:14;;;;;;;1.50;1.30;;;11.00;82.10;;;;;;4936909;29;20464;-75
2022/04/12 05:27:43;;;;;;;1.43;1.10;;;11.00;82.10;;;;;;4936448;29;20539;-75
2022/04/12 05:30:13;;;;;;;1.43;1.03;;;11.00;82.20;;;;;;4935708;29;20463;-76
2022/04/12 05:32:41;;;;;;;1.40;1.10;;;11.00;82.40;;;;;;4938132;29;20512;-76
2022/04/12 05:35:08;;;;;;;1.50;1.10;;;11.00;82.40;;;;;;4934920;29;20466;-75
2022/04/12 05:37:42;;;;;;;1.50;1.10;;;11.00;82.60;;;;;;4933610;29;20499;-75
2022/04/12 05:40:12;;;;;;;1.50;1.10;;;11.00;82.40;;;;;;4932126;29;20482;-75
2022/04/12 05:42:40;;;;;;;1.50;1.10;;;11.00;82.40;;;;;;4923628;29;20543;-75
2022/04/12 05:45:10;;;;;;;1.50;1.10;;;11.00;82.60;;;;;;4924164;29;20485;-75
2022/04/12 05:47:44;;;;;;;1.50;1.10;;;11.00;82.60;;;;;;4933052;29;20943;-74
2022/04/12 05:50:13;;;;;;;1.50;1.10;;;11.10;82.40;;;;;;4930289;29;20471;-75
2022/04/12 05:52:40;;;;;;;1.50;1.10;;;11.10;82.20;;;;;;4921527;29;20500;-75
2022/04/12 05:55:09;;;;;;;1.43;1.10;;;11.20;82.20;;;;;;4930357;29;20500;-75
2022/04/12 05:57:37;;;;;;;1.50;1.10;;;11.30;81.70;;;;;;4929137;29;20862;-75
2022/04/12 06:00:06;;;;;;;1.50;1.10;;;11.40;81.40;;;;;;4934891;29;20471;-76
2022/04/12 06:02:35;;;;;;;1.47;1.00;;;11.40;80.80;;;;;;4925006;29;21006;-77
2022/04/12 06:05:01;;;;;;;1.50;1.10;;;11.40;80.90;;;;;;4930302;29;20503;-76
2022/04/12 06:07:33;;;;;;;1.40;1.00;;;11.50;80.80;;;;;;4930047;29;20480;-75
2022/04/12 06:10:01;;;;;;;1.47;1.10;;;11.60;80.70;;;;;;4931932;29;20467;-75
2022/04/12 06:12:28;;;;;;;1.50;1.00;;;11.70;80.50;;;;;;4927228;29;20487;-75
2022/04/12 06:14:55;;;;;;;1.47;1.00;;;11.80;80.20;;;;;;4923609;29;20480;-76
2022/04/12 06:17:22;;;;;;;1.47;1.10;;;12.00;79.60;;;;;;4929368;29;20670;-76
2022/04/12 06:19:50;;;;;;;1.50;1.10;;;12.10;79.30;;;;;;4933836;29;20468;-76
2022/04/12 06:22:17;;;;;;;1.50;1.10;;;12.20;79.20;;;;;;4929140;29;21176;-74
2022/04/12 06:24:44;;;;;;;1.50;1.17;;;12.30;78.70;;;;;;4926309;29;20468;-77
2022/04/12 06:27:11;;;;;;;1.40;1.00;;;12.40;78.70;;;;;;4927189;29;20515;-74
2022/04/12 06:29:37;;;;;;;1.43;1.00;;;12.50;78.30;;;;;;4929822;29;20469;-77
2022/04/12 06:32:05;;;;;;;1.60;1.40;;;12.60;77.70;;;;;;4931791;29;20862;-74
2022/04/12 06:34:32;;;;;;;1.47;1.10;;;12.60;77.60;;;;;;4932882;29;20824;-77
2022/04/12 06:37:00;;;;;;;1.50;1.03;;;12.60;77.90;;;;;;4931224;29;20742;-76
2022/04/12 06:39:27;;;;;;;1.50;1.20;;;12.70;77.80;;;;;;4931993;29;20479;-76
2022/04/12 06:41:54;;;;;;;1.47;1.00;;;12.80;77.60;;;;;;4932690;29;20492;-76
2022/04/12 06:44:20;;;;;;;1.47;1.00;;;12.90;77.40;;;;;;4931168;29;20503;-75
2022/04/12 06:46:47;;;;;;;1.50;1.00;;;13.00;77.40;;;;;;4925228;29;20483;-76
2022/04/12 06:49:14;;;;;;;2.07;1.43;;;13.00;77.10;;;;;;4925884;29;20472;-79
2022/04/12 06:51:41;;;;;;;1.50;1.10;;;13.10;76.90;;;;;;4924200;29;20480;-76
2022/04/12 06:54:09;;;;;;;1.40;0.90;;;13.10;76.80;;;;;;4933847;29;20514;-76
2022/04/12 06:56:36;;;;;;;1.50;1.00;;;13.20;76.90;;;;;;4932060;29;20496;-76
2022/04/12 06:59:03;;;;;;;1.50;1.00;;;13.20;77.00;;;;;;4939910;29;20468;-76
2022/04/12 07:01:30;;;;;;;1.50;1.10;;;13.30;76.80;;;;;;4932304;29;20478;-75
2022/04/12 07:03:57;;;;;;;1.43;0.90;;;13.30;76.50;;;;;;4933967;29;21127;-76
2022/04/12 07:06:23;;;;;;;1.50;1.10;;;13.40;76.10;;;;;;4933332;29;20534;-76
2022/04/12 07:08:50;;;;;;;2.53;2.33;;;13.40;76.00;;;;;;4933537;29;20479;-75
2022/04/12 07:11:20;;;;;;;1.40;1.00;;;13.50;75.90;;;;;;4934083;29;20996;-76
2022/04/12 07:13:47;;;;;;;1.47;1.00;;;13.50;75.90;;;;;;4921758;29;20496;-76
2022/04/12 07:16:14;;;;;;;1.60;1.40;;;13.60;76.10;;;;;;4928652;29;20498;-76
2022/04/12 07:18:41;;;;;;;1.50;1.00;;;13.70;75.60;;;;;;4933345;29;20472;-76
2022/04/12 07:21:08;;;;;;;1.43;1.00;;;13.80;75.60;;;;;;4930830;29;21084;-75
2022/04/12 07:23:36;;;;;;;1.50;1.00;;;14.00;75.70;;;;;;4932151;29;20495;-76
2022/04/12 07:26:03;;;;;;;1.50;1.10;;;14.20;75.10;;;;;;4934231;29;20555;-76
2022/04/12 07:28:31;;;;;;;1.50;1.00;;;14.30;74.60;;;;;;4927134;29;20471;-76
2022/04/12 07:30:58;;;;;;;1.50;1.00;;;14.30;74.70;;;;;;4929631;29;20483;-77
2022/04/12 07:33:25;;;;;;;1.50;1.00;;;14.40;74.80;;;;;;4918984;29;20498;-76
2022/04/12 07:35:52;;;;;;;1.50;1.00;;;14.50;74.80;;;;;;4915407;29;20499;-76
2022/04/12 07:38:18;;;;;;;1.47;1.00;;;14.60;74.40;;;;;;4921036;29;20498;-76
2022/04/12 07:40:45;;;;;;;1.47;1.00;;;14.80;74.30;;;;;;4920460;29;20475;-76
2022/04/12 07:43:15;;;;;;;1.50;0.97;;;14.90;73.80;;;;;;4922705;23;20523;-91
2022/04/12 07:45:44;;;;;;;1.47;1.00;;;15.10;74.10;;;;;;4916156;29;20557;-90
2022/04/12 07:51:24;;;;;;;1.40;0.90;;;15.50;73.10;;;;;;4903388;29;21084;-89
2022/04/12 07:53:52;;;;;;;1.40;0.93;;;15.70;72.70;;;;;;4905598;29;20483;-89
2022/04/12 07:56:19;;;;;;;1.47;0.90;;;15.80;72.50;;;;;;4913768;29;21121;-89
2022/04/12 07:58:46;;;;;;;1.43;1.00;;;15.90;72.10;;;;;;4911327;29;20500;-90
2022/04/12 08:05:15;;;;;;;1.60;1.30;;;16.00;71.60;;;;;;4842056;29;20969;-90
2022/04/12 08:07:47;;;;;;;1.47;1.00;;;16.20;71.60;;;;;;4894672;29;20606;-89
2022/04/12 08:10:14;;;;;;;1.47;0.90;;;16.30;71.50;;;;;;4909965;29;20472;-90
2022/04/12 08:12:41;;;;;;;1.43;0.90;;;16.50;70.90;;;;;;4912460;29;20472;-89
2022/04/12 08:15:10;;;;;;;1.47;1.00;;;16.50;70.90;;;;;;4907396;29;20572;-87
2022/04/12 08:17:39;;;;;;;1.40;0.90;;;16.60;71.10;;;;;;4921521;29;21073;-89
2022/04/12 08:20:07;;;;;;;1.47;0.90;;;16.80;70.80;;;;;;4911699;29;20567;-88
2022/04/12 08:22:36;;;;;;;1.50;0.90;;;17.00;69.80;;;;;;4905251;29;20544;-89
2022/04/12 08:25:03;;;;;;;1.50;1.00;;;17.20;70.00;;;;;;4913822;29;20988;-89
2022/04/12 08:27:31;;;;;;;1.50;1.00;;;17.30;69.90;;;;;;4913078;29;20599;-89
2022/04/12 08:29:58;;;;;;;1.50;1.00;;;17.30;69.40;;;;;;4914335;29;20480;-89
2022/04/12 08:32:30;;;;;;;1.47;0.90;;;17.50;69.40;;;;;;4914306;29;20472;-90
2022/04/12 08:34:58;;;;;;;1.43;0.90;;;17.60;68.80;;;;;;4917353;29;20511;-90
2022/04/12 08:37:26;;;;;;;1.50;0.97;;;17.60;68.80;;;;;;4914950;29;21220;-89
2022/04/12 08:39:53;;;;;;;1.47;0.90;;;17.70;69.40;;;;;;4915249;29;20475;-90
2022/04/12 08:42:21;;;;;;;1.47;0.93;;;17.70;68.60;;;;;;4914281;29;20907;-89
2022/04/12 08:44:50;;;;;;;1.47;0.90;;;17.80;68.90;;;;;;4911632;29;20588;-89
2022/04/12 08:47:19;;;;;;;1.50;1.00;;;17.90;69.20;;;;;;4911642;29;21004;-90
2022/04/12 08:49:48;;;;;;;1.43;0.90;;;18.10;68.70;;;;;;4911653;29;20472;-90
2022/04/12 08:52:16;;;;;;;1.50;0.90;;;18.30;68.30;;;;;;4914437;29;20556;-90
2022/04/12 08:54:44;;;;;;;1.50;0.90;;;18.40;68.50;;;;;;4912373;29;21648;-90
2022/04/12 08:57:12;;;;;;;1.47;0.90;;;18.60;67.90;;;;;;4913860;28;20480;-90
2022/04/12 08:59:41;;;;;;;1.50;0.90;;;18.80;66.90;;;;;;4916647;29;20468;-89
2022/04/12 09:02:10;;;;;;;1.47;0.90;;;19.00;66.70;;;;;;4915536;29;20512;-90
2022/04/12 09:04:38;;;;;;;1.47;0.90;;;19.00;67.30;;;;;;4913764;29;20464;-90
2022/04/12 09:07:10;;;;;;;1.50;1.20;;;19.20;66.60;;;;;;4918025;29;20528;-90
2022/04/12 09:09:42;;;;;;;1.50;1.10;;;19.30;66.50;;;;;;4912957;29;20966;-90
2022/04/12 09:12:10;;;;;;;1.47;0.90;;;19.50;66.10;;;;;;4907900;29;20559;-90
2022/04/12 09:14:39;;;;;;;1.50;0.97;;;19.60;65.60;;;;;;4912587;29;20473;-90
2022/04/12 09:17:09;;;;;;;1.90;1.20;;;19.70;66.10;;;;;;4909060;29;20496;-91
2022/04/12 09:19:42;;;;;;;1.43;0.90;;;20.00;66.60;;;;;;4909991;29;20509;-92
2022/04/12 09:22:35;;;;;;;1.47;0.90;;;20.20;66.00;;;;;;4926613;29;20840;-92
2022/04/12 09:42:57;;;;;;;1.47;0.90;;;20.40;64.10;;;;;;4861089;29;20916;-89
2022/04/12 09:45:27;;;;;;;1.43;0.90;;;20.50;64.30;;;;;;4874025;29;20529;-89
2022/04/12 09:50:51;;;;;;;1.47;0.90;;;20.60;63.50;;;;;;5091024;28;20539;-82
2022/04/12 09:53:18;;;;;;;1.50;0.90;;;20.50;63.80;;;;;;5083010;28;20550;-83
2022/04/12 09:55:47;;;;;;;1.43;0.90;;;20.50;64.10;;;;;;5079540;28;20468;-83
2022/04/12 09:58:16;;;;;;;1.50;1.00;;;20.50;63.90;;;;;;5086305;28;20842;-83
2022/04/12 10:00:45;;;;;;;1.47;0.90;;;20.30;63.20;;;;;;5078440;28;20453;-82
2022/04/12 10:03:13;;;;;;;1.47;0.90;;;20.20;63.50;;;;;;5090472;28;20481;-86
2022/04/12 10:05:40;;;;;;;1.47;0.90;;;20.40;64.10;;;;;;5078781;28;20574;-81
2022/04/12 10:08:11;;;;;;;1.47;0.90;;;20.50;62.80;;;;;;5081815;28;20623;-85
2022/04/12 10:10:43;;;;;;;1.87;1.30;;;20.70;62.50;;;;;;5081939;28;20493;-82
2022/04/12 10:13:11;;;;;;;1.43;0.90;;;20.90;62.70;;;;;;5082792;28;20519;-82
2022/04/12 10:16:17;;;;;;;1.50;1.00;;;20.90;62.10;;;;;;5080099;28;20491;-85
2022/04/12 10:18:45;;;;;;;1.50;0.90;;;21.00;61.90;;;;;;5060695;28;20540;-84
2022/04/12 10:21:13;;;;;;;1.47;0.90;;;21.30;61.40;;;;;;5072061;28;20453;-81
2022/04/12 10:23:44;;;;;;;1.47;0.90;;;21.40;61.10;;;;;;5075736;28;20484;-84
2022/04/12 10:26:12;;;;;;;1.50;0.90;;;21.40;61.40;;;;;;5072781;28;20481;-83
2022/04/12 10:28:39;;;;;;;1.50;0.90;;;21.50;61.70;;;;;;5067745;28;20461;-84
2022/04/12 10:31:24;;;;;;;1.50;0.90;;;21.70;61.30;;;;;;5067918;28;20462;-82
2022/04/12 10:34:04;;;;;;;1.43;0.90;;;21.90;61.00;;;;;;5069554;28;20576;-83
2022/04/12 10:37:08;;;;;;;1.50;0.90;;;22.10;60.80;;;;;;5062942;28;20489;-83
2022/04/12 10:39:50;;;;;;;1.47;0.90;;;22.30;60.60;;;;;;5052245;28;20461;-84
2022/04/12 10:42:19;;;;;;;1.47;0.90;;;22.20;60.60;;;;;;5063577;28;20473;-81
2022/04/12 10:44:52;;;;;;;1.43;0.90;;;22.20;60.50;;;;;;5059404;28;20474;-79
2022/04/12 10:47:24;;;;;;;1.43;0.90;;;22.40;60.50;;;;;;5053793;28;20532;-81
2022/04/12 10:49:57;;;;;;;1.47;0.90;;;22.40;60.60;;;;;;5060044;28;20481;-80
2022/04/12 10:52:42;;;;;;;3.20;2.13;;;22.40;61.00;;;;;;5054813;28;20470;-82
2022/04/12 10:55:12;;;;;;;1.47;0.90;;;22.60;60.50;;;;;;5056063;28;20488;-81
2022/04/12 10:57:39;;;;;;;1.47;0.90;;;22.80;60.20;;;;;;5054877;28;20462;-82
2022/04/12 11:00:10;;;;;;;1.50;0.87;;;22.90;59.30;;;;;;5053062;28;20725;-81
2022/04/12 11:02:39;;;;;;;1.50;0.90;;;23.00;59.80;;;;;;5043733;28;20601;-81
2022/04/12 11:05:07;;;;;;;1.50;0.90;;;23.00;60.30;;;;;;5035776;28;20459;-81
2022/04/12 11:07:35;;;;;;;1.43;0.90;;;23.10;59.60;;;;;;5041153;28;20477;-81
2022/04/12 11:10:20;;;;;;;1.47;0.90;;;23.10;60.10;;;;;;5034711;28;20523;-81
2022/04/12 11:12:49;;;;;;;1.47;0.90;;;23.50;60.00;;;;;;5044317;28;20479;-81
2022/04/12 11:15:27;;;;;;;1.50;0.90;;;23.70;59.40;;;;;;5047063;28;20470;-81
2022/04/12 11:18:11;;;;;;;1.40;0.90;;;23.90;59.60;;;;;;5041071;28;20475;-81
2022/04/12 11:20:41;;;;;;;1.47;0.90;;;23.90;58.30;;;;;;5041233;28;20468;-81
2022/04/12 11:23:09;;;;;;;1.50;0.83;;;23.80;59.10;;;;;;5047584;28;20546;-82
2022/04/12 11:26:03;;;;;;;1.43;0.90;;;23.90;58.90;;;;;;5049380;28;20474;-81
2022/04/12 11:28:30;;;;;;;1.40;0.90;;;23.80;58.70;;;;;;5042315;28;21041;-82
2022/04/12 11:30:59;;;;;;;1.47;0.90;;;23.90;59.30;;;;;;5042407;28;20491;-80
2022/04/12 11:33:27;;;;;;;1.43;0.90;;;23.90;58.60;;;;;;5044410;28;20487;-81
2022/04/12 11:35:55;;;;;;;1.40;0.80;;;24.00;58.90;;;;;;5045917;28;20529;-81
2022/04/12 11:38:22;;;;;;;1.50;0.90;;;24.00;58.40;;;;;;5044950;28;20467;-81
2022/04/12 11:40:51;;;;;;;1.47;0.90;;;24.10;59.20;;;;;;5034008;28;20916;-81
2022/04/12 11:43:25;;;;;;;1.47;0.80;;;24.20;59.00;;;;;;5044664;28;20487;-81
2022/04/12 11:45:53;;;;;;;1.47;0.87;;;24.30;58.40;;;;;;5037489;28;20990;-81
2022/04/12 11:48:21;;;;;;;1.43;0.90;;;24.40;58.10;;;;;;5039839;28;20467;-81
2022/04/12 11:50:52;;;;;;;1.47;0.90;;;24.40;57.90;;;;;;5045553;28;20486;-81
2022/04/12 11:53:20;;;;;;;1.50;0.80;;;24.30;57.20;;;;;;5042162;28;20486;-82
2022/04/12 11:55:48;;;;;;;1.40;0.90;;;24.30;57.30;;;;;;5047808;28;20478;-82
2022/04/12 11:58:19;;;;;;;1.40;0.90;;;24.30;56.90;;;;;;5046148;28;20463;-81
2022/04/12 12:00:46;;;;;;;1.50;0.90;;;24.30;56.60;;;;;;5041937;28;20463;-81
2022/04/12 12:03:16;;;;;;;1.47;0.90;;;24.30;56.70;;;;;;5035994;28;20897;-81
2022/04/12 12:05:44;;;;;;;1.40;0.90;;;24.50;56.80;;;;;;5033793;28;20578;-81
2022/04/12 12:08:11;;;;;;;1.47;0.83;;;24.70;56.90;;;;;;5042165;28;20471;-81
2022/04/12 12:10:38;;;;;;;1.47;0.90;;;24.80;56.20;;;;;;5034927;28;20557;-80
2022/04/12 12:13:07;;;;;;;1.50;1.00;;;25.00;57.50;;;;;;5042011;28;20478;-81
2022/04/12 12:15:36;;;;;;;1.50;0.90;;;25.20;55.60;;;;;;5046013;28;20470;-81
2022/04/12 12:18:05;;;;;;;1.47;0.90;;;25.30;55.80;;;;;;5040268;28;20462;-80
2022/04/12 12:20:34;;;;;;;1.50;1.20;;;25.50;55.70;;;;;;5039172;28;20505;-81
2022/04/12 12:23:03;;;;;;;1.47;0.83;;;25.60;54.90;;;;;;5036097;28;20489;-80
2022/04/12 12:25:42;;;;;;;1.50;0.90;;;25.40;54.40;;;;;;5049696;28;20473;-81
2022/04/12 12:28:14;;;;;;;1.40;0.90;;;25.30;55.70;;;;;;5044134;28;20489;-81
2022/04/12 12:30:43;;;;;;;1.50;1.10;;;25.50;56.20;;;;;;5031032;28;20493;-81
2022/04/12 12:33:11;;;;;;;1.43;0.80;;;25.60;56.50;;;;;;5035813;28;20663;-81
2022/04/12 12:35:41;;;;;;;1.43;0.90;;;25.50;55.80;;;;;;5036749;28;20474;-82
2022/04/12 12:38:12;;;;;;;1.40;0.80;;;25.20;55.10;;;;;;5036115;28;20556;-82
2022/04/12 12:40:39;;;;;;;1.43;0.90;;;25.00;55.80;;;;;;5029819;28;20830;-82
2022/04/12 12:43:07;;;;;;;1.43;0.80;;;25.00;56.30;;;;;;5040488;28;20743;-81
2022/04/12 12:45:37;;;;;;;1.67;1.57;;;25.00;56.20;;;;;;5036563;28;20462;-80
2022/04/12 12:48:08;;;;;;;1.43;0.80;;;24.90;55.80;;;;;;5042635;28;20659;-81
2022/04/12 12:50:38;;;;;;;1.50;0.90;;;24.80;57.00;;;;;;5041074;28;20834;-82
2022/04/12 12:53:06;;;;;;;2.77;2.20;;;24.60;55.90;;;;;;5037924;28;20487;-81
2022/04/12 12:55:36;;;;;;;1.77;1.43;;;24.50;56.20;;;;;;5043327;28;20475;-81
2022/04/12 12:58:05;;;;;;;1.50;0.90;;;24.30;56.60;;;;;;5048684;28;21160;-81
2022/04/12 13:00:32;;;;;;;1.40;0.90;;;24.30;56.10;;;;;;5038402;28;20474;-81
2022/04/12 13:03:03;;;;;;;1.47;0.80;;;24.50;56.70;;;;;;5044511;28;20486;-81
2022/04/12 13:05:32;;;;;;;1.40;0.90;;;24.70;56.90;;;;;;5039771;28;20874;-81
2022/04/12 13:08:00;;;;;;;1.40;0.90;;;24.90;56.30;;;;;;5037534;28;20463;-80
2022/04/12 13:10:31;;;;;;;1.47;0.90;;;24.80;55.50;;;;;;5039162;28;20479;-82
2022/04/12 13:12:57;;;;;;;1.50;0.90;;;24.90;56.30;;;;;;5048830;28;20489;-80
2022/04/12 13:15:24;;;;;;;1.40;0.80;;;25.10;56.60;;;;;;5038705;28;20487;-82
2022/04/12 13:17:51;;;;;;;1.43;0.90;;;25.20;55.20;;;;;;5043288;28;20466;-80
2022/04/12 13:20:19;;;;;;;1.43;0.90;;;25.10;55.20;;;;;;5033413;28;20470;-81
2022/04/12 13:22:48;;;;;;;1.50;0.90;;;25.10;55.10;;;;;;5044672;28;20462;-81
2022/04/12 13:25:17;;;;;;;1.47;0.90;;;25.10;56.50;;;;;;5045507;28;20490;-80
2022/04/12 13:27:45;;;;;;;1.40;0.90;;;25.20;55.00;;;;;;5042078;28;20462;-81